Weather reports worldwide

Advertisment
Chateau Chinon, France (7270): temperature & dewpoint: 15.05.2019 05:00:00 - 21.05.2019 05:00:00 (CEST)Chateau Chinon, France (7270): wind speed & gusts: 15.05.2019 05:00:00 - 21.05.2019 05:00:00 (CEST)Chateau Chinon, France (7270): wind direction: 15.05.2019 05:00:00 - 21.05.2019 05:00:00 (CEST)Chateau Chinon, France (7270): precipitation: 15.05.2019 05:00:00 - 21.05.2019 05:00:00 (CEST)
Date & Time tt [°C] td [°C] ff [km/h] ff [kn] fx [km/h] fx [kn] dd rr [mm]
21.05.2019 05:00:00 9,9 9,7 4 2 22 12 NW 0,0
21.05.2019 04:00:00 10,1 9,9 4 2 13 7 NW 0,0
21.05.2019 03:00:00 10,1 9,6 2 1 9 5 WNW 0,0
21.05.2019 02:00:00 10,1 9,5 2 1 11 6 WNW -
21.05.2019 01:00:00 10,0 9,2 2 1 9 5 WNW 0,0
21.05.2019 00:00:00 10,0 9,2 2 1 9 5 WNW 0,0
20.05.2019 23:00:00 10,0 9,5 2 1 8 4 WNW 0,0
20.05.2019 22:00:00 9,9 9,4 0 0 9 5 N 0,0
20.05.2019 21:00:00 10,2 9,6 2 1 15 8 NW 0,0
20.05.2019 20:00:00 10,3 9,5 4 2 18 10 NW -
20.05.2019 19:00:00 10,3 9,4 4 2 24 13 NW 0,0
20.05.2019 18:00:00 10,7 9,6 5 3 22 12 NW 0,0
20.05.2019 17:00:00 11,3 10,0 4 2 16 9 NW 0,0
20.05.2019 16:00:00 11,3 9,7 4 2 21 11 NW 0,0
20.05.2019 15:00:00 11,6 10,0 5 3 22 12 NW 0,0
20.05.2019 14:00:00 11,7 10,1 4 2 18 10 NW -
20.05.2019 13:00:00 11,1 9,8 4 2 21 11 NNW 0,0
20.05.2019 12:00:00 11,4 10,0 4 2 16 9 NW 0,0
20.05.2019 11:00:00 10,7 10,1 4 2 22 12 NW 0,0
20.05.2019 10:00:00 10,6 10,4 4 2 16 9 NW 0,0
20.05.2019 09:00:00 9,5 9,2 4 2 24 13 NW 0,0
20.05.2019 08:00:00 9,9 9,9 5 3 22 12 NW -
20.05.2019 07:00:00 9,8 9,8 4 2 15 8 NW 0,2
20.05.2019 06:00:00 10,0 10,0 4 2 18 10 NW 0,0
20.05.2019 05:00:00 10,0 10,0 2 1 13 7 NW 0,0
20.05.2019 04:00:00 9,8 9,8 4 2 13 7 NW 0,0
20.05.2019 03:00:00 9,7 9,7 4 2 11 6 NW 0,0
20.05.2019 02:00:00 9,6 9,5 4 2 16 9 WNW -
20.05.2019 01:00:00 9,6 9,5 2 1 11 6 NW 0,2
20.05.2019 00:00:00 9,8 9,7 2 1 9 5 WNW 0,0
19.05.2019 23:00:00 10,3 10,1 2 1 13 7 WNW 0,4
19.05.2019 22:00:00 10,5 10,2 2 1 15 8 NE 0,0
19.05.2019 21:00:00 10,7 10,1 0 0 8 4 N 0,0
19.05.2019 20:00:00 10,9 10,3 0 0 8 4 N -
19.05.2019 19:00:00 10,8 10,2 2 1 15 8 W 2,0
19.05.2019 18:00:00 12,4 9,6 0 0 13 7 N 0,0
19.05.2019 17:00:00 13,0 10,4 2 1 13 7 WNW 0,0
19.05.2019 16:00:00 11,9 9,5 2 1 11 6 NW 0,0
19.05.2019 15:00:00 12,8 9,2 4 2 18 10 NW 0,0
19.05.2019 14:00:00 13,5 9,7 4 2 13 7 W -
19.05.2019 13:00:00 12,5 9,3 4 2 11 6 WNW 0,0
19.05.2019 12:00:00 12,2 9,2 4 2 11 6 WNW 0,0
19.05.2019 11:00:00 10,1 9,0 0 0 9 5 N 0,0
19.05.2019 10:00:00 9,4 8,9 2 1 11 6 WNW 0,0
19.05.2019 09:00:00 9,0 8,7 0 0 11 6 N 0,0
19.05.2019 08:00:00 9,0 8,9 2 1 9 5 W -
19.05.2019 07:00:00 8,1 8,0 0 0 8 4 N 0,0
19.05.2019 06:00:00 7,9 7,8 0 0 8 4 N 0,0
19.05.2019 05:00:00 8,1 8,0 2 1 11 6 NW 0,0
19.05.2019 04:00:00 8,1 8,0 2 1 11 6 N 0,0
19.05.2019 03:00:00 8,4 8,1 0 0 8 4 N 0,0
19.05.2019 02:00:00 8,3 8,0 0 0 11 6 N -
19.05.2019 01:00:00 7,6 7,5 2 1 13 7 NNW 0,0
19.05.2019 00:00:00 7,0 6,7 2 1 9 5 WSW 0,0
18.05.2019 23:00:00 7,0 5,8 0 0 4 2 N 0,0
18.05.2019 22:00:00 8,4 7,3 0 0 4 2 N 0,0
18.05.2019 21:00:00 9,5 7,1 0 0 9 5 N 0,0
18.05.2019 20:00:00 12,0 7,7 4 2 18 10 N -
18.05.2019 19:00:00 14,1 8,1 4 2 24 13 W 0,0
18.05.2019 18:00:00 13,7 8,5 5 3 24 13 WSW 0,0
18.05.2019 17:00:00 13,2 9,3 4 2 22 12 WNW 0,0
18.05.2019 16:00:00 12,9 8,0 5 3 22 12 SW 0,0
18.05.2019 15:00:00 13,0 8,7 4 2 34 18 WSW 0,0
18.05.2019 14:00:00 12,7 6,9 9 5 26 14 SSW -
18.05.2019 13:00:00 14,3 7,3 8 4 28 15 S 0,0
18.05.2019 12:00:00 15,3 7,6 8 4 29 16 SE 0,0
18.05.2019 11:00:00 13,8 6,4 9 5 26 14 SE 0,0
18.05.2019 10:00:00 13,6 7,6 8 4 24 13 SE 0,0
18.05.2019 09:00:00 11,9 7,0 5 3 18 10 SE 0,0
18.05.2019 08:00:00 10,9 6,6 4 2 18 10 SSW -
18.05.2019 07:00:00 8,1 6,1 8 4 18 10 SE 0,0
18.05.2019 06:00:00 7,0 5,6 5 3 21 11 ESE 0,0
18.05.2019 05:00:00 7,2 6,0 5 3 21 11 SSE 0,0
18.05.2019 04:00:00 7,0 5,8 5 3 15 8 SE 0,0
18.05.2019 03:00:00 7,9 6,0 4 2 21 11 SSW 0,0
18.05.2019 02:00:00 7,9 6,2 4 2 22 12 S -
18.05.2019 01:00:00 7,1 6,0 8 4 21 11 SE 0,0
18.05.2019 00:00:00 7,8 6,7 5 3 18 10 ESE 0,0
17.05.2019 23:00:00 8,4 6,5 8 4 18 10 SSE 0,0
17.05.2019 22:00:00 9,1 6,9 5 3 26 14 S 0,0
17.05.2019 21:00:00 9,9 8,5 5 3 21 11 SSE 0,0
17.05.2019 20:00:00 10,0 8,3 5 3 15 8 SSE -
17.05.2019 19:00:00 9,7 8,0 5 3 29 16 S 1,0
17.05.2019 18:00:00 11,9 7,6 8 4 37 20 SW 0,0
17.05.2019 17:00:00 13,6 9,2 4 2 21 11 WSW 0,0
17.05.2019 16:00:00 13,5 9,0 4 2 31 17 WNW 0,0
17.05.2019 15:00:00 11,9 8,0 8 4 39 21 WSW 0,0
17.05.2019 14:00:00 13,0 6,8 11 6 29 16 SSW -
17.05.2019 13:00:00 14,7 6,5 9 5 31 17 SW 0,0
17.05.2019 12:00:00 13,7 5,1 5 3 22 12 SW 0,0
17.05.2019 11:00:00 14,1 6,0 4 2 15 8 ENE 0,0
17.05.2019 10:00:00 13,3 6,4 4 2 26 14 E 0,0
17.05.2019 09:00:00 11,7 5,8 5 3 21 11 E 0,0
17.05.2019 08:00:00 9,7 4,7 8 4 21 11 E -
17.05.2019 07:00:00 8,7 3,9 8 4 18 10 E 0,0
17.05.2019 06:00:00 7,9 3,5 5 3 18 10 E 0,0
17.05.2019 05:00:00 7,5 3,4 4 2 18 10 E 0,0
17.05.2019 04:00:00 7,6 3,8 5 3 18 10 E 0,0
17.05.2019 03:00:00 8,7 3,9 5 3 24 13 E 0,0
17.05.2019 02:00:00 8,3 4,3 4 2 13 7 E -
17.05.2019 01:00:00 7,7 4,1 4 2 11 6 E 0,0
17.05.2019 00:00:00 7,8 4,0 4 2 8 4 E 0,0
16.05.2019 23:00:00 8,6 3,8 0 0 8 4 N 0,0
16.05.2019 22:00:00 9,1 3,5 0 0 11 6 N 0,0
16.05.2019 21:00:00 10,8 3,6 0 0 18 10 N 0,0
16.05.2019 20:00:00 13,3 3,6 2 1 18 10 E -
16.05.2019 19:00:00 14,8 3,6 2 1 15 8 E 0,0
16.05.2019 18:00:00 15,3 2,4 5 3 18 10 ENE 0,0
16.05.2019 17:00:00 16,2 2,6 5 3 22 12 ENE 0,0
16.05.2019 16:00:00 15,7 2,1 5 3 28 15 ENE 0,0
16.05.2019 15:00:00 16,1 1,4 5 3 24 13 NNE 0,0
16.05.2019 14:00:00 15,5 2,3 8 4 24 13 NE -
16.05.2019 13:00:00 14,6 0,8 8 4 26 14 N 0,0
16.05.2019 12:00:00 14,1 1,7 8 4 24 13 ENE 0,0
16.05.2019 11:00:00 13,6 1,2 5 3 26 14 NE 0,0
16.05.2019 10:00:00 12,3 0,4 5 3 34 18 E 0,0
16.05.2019 09:00:00 11,6 1,5 4 2 21 11 ENE 0,0
16.05.2019 08:00:00 9,5 1,4 4 2 16 9 E -
16.05.2019 07:00:00 4,3 -0,1 4 2 13 7 E 0,0
16.05.2019 06:00:00 3,6 -1,0 2 1 5 3 E 0,0
16.05.2019 05:00:00 3,5 -0,9 2 1 9 5 E 0,0
16.05.2019 04:00:00 3,4 -1,2 2 1 8 4 E 0,0
16.05.2019 03:00:00 4,1 -0,9 4 2 5 3 E 0,0
16.05.2019 02:00:00 5,1 -1,6 2 1 22 12 NW -
16.05.2019 01:00:00 5,4 -1,3 4 2 18 10 E 0,0
16.05.2019 00:00:00 6,0 -1,4 4 2 18 10 E 0,0
15.05.2019 23:00:00 6,8 -1,6 4 2 21 11 ENE 0,0
15.05.2019 22:00:00 7,7 -1,5 4 2 18 10 E 0,0
15.05.2019 21:00:00 9,8 -1,3 4 2 42 23 NE 0,0
15.05.2019 20:00:00 11,9 -2,0 9 5 35 19 NE -
15.05.2019 19:00:00 14,2 -1,1 5 3 35 19 ENE 0,0
15.05.2019 18:00:00 14,7 0,9 9 5 42 23 ENE 0,0
15.05.2019 17:00:00 15,3 1,4 5 3 35 19 ENE 0,0
15.05.2019 16:00:00 15,0 1,1 9 5 41 22 NE 0,0
15.05.2019 15:00:00 14,7 1,6 9 5 39 21 NE 0,0
15.05.2019 14:00:00 13,6 0,9 11 6 37 20 NE -
15.05.2019 13:00:00 14,0 2,5 8 4 57 31 ENE 0,0
15.05.2019 12:00:00 12,7 -0,6 11 6 37 20 NE 0,0
15.05.2019 11:00:00 12,1 0,5 9 5 41 22 ENE 0,0
15.05.2019 10:00:00 10,8 -0,1 9 5 41 22 ENE 0,0
15.05.2019 09:00:00 8,9 -0,4 8 4 41 22 ENE 0,0
15.05.2019 08:00:00 7,7 -0,8 5 3 31 17 ENE -
15.05.2019 07:00:00 4,3 -1,9 8 4 26 14 ENE 0,0
15.05.2019 06:00:00 3,8 -2,8 5 3 26 14 ENE 0,0
15.05.2019 05:00:00 4,5 -2,8 5 3 28 15 E 0,0

tt = temperature
td = dewpoint
ff = wind speed
fx = gusts
dd = wind direction
rr = precipitation

Next stations